Time;durP1;ratioP1;P1;durP2;ratioP2;P2;SDS_P1;SDS_P2;PMS_P1;PMS_P2;Temp;Humidity;BMP_temperature;BMP_pressure;BME280_temperature;BME280_humidity;BME280_pressure;Samples;Min_cycle;Max_cycle;Signal;HPM_P1;HPM_P2
2022/04/07 00:01:28;;;;;;;3.33;2.40;;;9.80;99.90;;;;;;5067827;28;20177;-66
2022/04/07 00:03:53;;;;;;;2.20;2.00;;;9.90;99.90;;;;;;5079050;28;20602;-65
2022/04/07 00:06:19;;;;;;;2.60;2.40;;;9.90;99.90;;;;;;5065877;28;20200;-68
2022/04/07 00:08:45;;;;;;;2.50;2.20;;;10.00;99.90;;;;;;5076782;28;20200;-66
2022/04/07 00:11:14;;;;;;;3.10;2.23;;;10.00;99.90;;;;;;5067450;28;20234;-65
2022/04/07 00:13:40;;;;;;;4.17;2.80;;;10.00;99.90;;;;;;5072061;28;20208;-64
2022/04/07 00:16:07;;;;;;;3.33;2.80;;;10.00;99.90;;;;;;5074209;28;20189;-63
2022/04/07 00:18:33;;;;;;;3.87;2.57;;;10.10;99.90;;;;;;5071101;28;20213;-66
2022/04/07 00:21:02;;;;;;;3.23;2.40;;;10.00;99.90;;;;;;5070004;28;20189;-65
2022/04/07 00:23:28;;;;;;;3.23;2.30;;;10.00;99.90;;;;;;5069973;28;20227;-66
2022/04/07 00:25:53;;;;;;;3.37;3.03;;;10.10;99.90;;;;;;5065218;28;20553;-68
2022/04/07 00:28:19;;;;;;;4.93;2.43;;;10.10;99.90;;;;;;5066471;28;20200;-63
2022/04/07 00:30:44;;;;;;;3.20;2.40;;;10.10;99.90;;;;;;5069068;28;20189;-67
2022/04/07 00:33:10;;;;;;;2.70;2.47;;;10.20;99.90;;;;;;5068974;28;20185;-65
2022/04/07 00:35:37;;;;;;;3.03;2.53;;;10.20;99.90;;;;;;5069764;28;20186;-65
2022/04/07 00:38:04;;;;;;;3.77;2.50;;;10.20;99.90;;;;;;5074654;28;20289;-65
2022/04/07 00:40:30;;;;;;;3.10;2.40;;;10.10;99.90;;;;;;5068987;28;20181;-67
2022/04/07 00:42:55;;;;;;;5.13;2.83;;;10.10;99.90;;;;;;5064721;28;20193;-65
2022/04/07 00:45:22;;;;;;;3.80;2.50;;;10.10;99.90;;;;;;5066178;28;20174;-64
2022/04/07 00:47:50;;;;;;;3.30;3.00;;;10.20;99.90;;;;;;5081611;28;20192;-66
2022/04/07 00:50:17;;;;;;;4.50;2.97;;;10.10;99.90;;;;;;5070404;28;20667;-65
2022/04/07 00:52:51;;;;;;;3.67;2.77;;;10.20;99.90;;;;;;5068373;28;20645;-66
2022/04/07 00:55:18;;;;;;;4.43;2.50;;;10.10;99.90;;;;;;5068359;28;20261;-64
2022/04/07 00:57:44;;;;;;;4.23;2.73;;;10.10;99.90;;;;;;5063263;28;20177;-67
2022/04/07 01:00:12;;;;;;;4.27;2.73;;;9.90;99.90;;;;;;5065907;28;20717;-65
2022/04/07 01:02:37;;;;;;;3.93;2.57;;;9.80;99.90;;;;;;5078836;28;20526;-66
2022/04/07 01:05:04;;;;;;;3.50;2.80;;;9.80;99.90;;;;;;5065603;28;20173;-68
2022/04/07 01:07:32;;;;;;;5.00;2.63;;;9.70;99.90;;;;;;5076384;28;20220;-67
2022/04/07 01:09:59;;;;;;;5.13;2.97;;;9.60;99.90;;;;;;5077840;28;20695;-67
2022/04/07 01:12:25;;;;;;;3.03;2.40;;;9.60;99.90;;;;;;5071493;28;20267;-67
2022/04/07 01:15:01;;;;;;;3.17;2.73;;;9.60;99.90;;;;;;5066043;28;20747;-67
2022/04/07 01:17:28;;;;;;;3.37;3.00;;;9.60;99.90;;;;;;5064780;28;20271;-67
2022/04/07 01:19:54;;;;;;;3.83;2.47;;;9.60;99.90;;;;;;5066939;28;20711;-66
2022/04/07 01:22:21;;;;;;;3.47;2.77;;;9.60;99.90;;;;;;5072513;28;20183;-66
2022/04/07 01:24:49;;;;;;;5.10;2.60;;;9.60;99.90;;;;;;5070089;28;20185;-68
2022/04/07 01:27:16;;;;;;;5.50;2.90;;;9.50;99.90;;;;;;5073970;28;20245;-67
2022/04/07 01:29:43;;;;;;;3.07;2.50;;;9.40;99.90;;;;;;5074361;28;20205;-66
2022/04/07 01:32:21;;;;;;;3.77;2.80;;;9.30;99.90;;;;;;5068682;28;20216;-68
2022/04/07 01:34:48;;;;;;;4.10;2.73;;;9.30;99.90;;;;;;5069757;28;20189;-66
2022/04/07 01:37:14;;;;;;;3.80;2.87;;;9.30;99.90;;;;;;5067669;28;20221;-68
2022/04/07 01:39:41;;;;;;;3.13;2.80;;;9.40;99.90;;;;;;5069213;28;20219;-67
2022/04/07 01:42:09;;;;;;;4.33;3.40;;;9.40;99.90;;;;;;5074203;28;20180;-67
2022/04/07 01:44:44;;;;;;;5.20;2.83;;;9.40;99.90;;;;;;5073251;28;20184;-68
2022/04/07 01:47:13;;;;;;;4.03;3.10;;;9.40;99.90;;;;;;5075188;28;20187;-69
2022/04/07 01:49:40;;;;;;;3.57;3.00;;;9.50;99.90;;;;;;5070973;28;20293;-67
2022/04/07 01:52:07;;;;;;;3.20;2.83;;;9.60;99.90;;;;;;5066785;28;20628;-65
2022/04/07 01:54:34;;;;;;;4.40;2.90;;;9.60;99.90;;;;;;5064934;28;20661;-66
2022/04/07 01:57:01;;;;;;;4.87;2.70;;;9.70;99.90;;;;;;5069955;28;20216;-65
2022/04/07 01:59:28;;;;;;;4.43;2.80;;;9.70;99.90;;;;;;5069908;28;20208;-68
2022/04/07 02:01:54;;;;;;;3.13;2.60;;;9.70;99.90;;;;;;5068480;28;20199;-67
2022/04/07 02:04:19;;;;;;;4.30;2.67;;;9.80;99.90;;;;;;5066695;28;20184;-67
2022/04/07 02:06:45;;;;;;;3.77;2.37;;;9.80;99.90;;;;;;5066548;28;20186;-67
2022/04/07 02:09:11;;;;;;;3.90;3.10;;;9.70;99.90;;;;;;5068063;28;20341;-66
2022/04/07 02:11:37;;;;;;;4.17;2.93;;;9.70;99.90;;;;;;5068493;28;20298;-64
2022/04/07 02:14:02;;;;;;;5.43;2.57;;;9.60;99.90;;;;;;5072918;28;20185;-65
2022/04/07 02:16:30;;;;;;;3.10;2.80;;;9.60;99.90;;;;;;5079246;28;20220;-67
2022/04/07 02:18:56;;;;;;;3.77;2.93;;;9.60;99.90;;;;;;5074820;28;20308;-65
2022/04/07 02:21:22;;;;;;;4.07;3.03;;;9.50;99.90;;;;;;5074102;28;20239;-68
2022/04/07 02:23:47;;;;;;;3.47;2.70;;;9.50;99.90;;;;;;5082397;28;20188;-68
2022/04/07 02:26:15;;;;;;;4.40;3.10;;;9.50;99.90;;;;;;5066304;28;20189;-68
2022/04/07 02:28:41;;;;;;;3.50;2.63;;;9.40;99.90;;;;;;5070926;28;20205;-67
2022/04/07 02:31:07;;;;;;;3.70;2.60;;;9.40;99.90;;;;;;5066823;28;20182;-66
2022/04/07 02:33:34;;;;;;;3.80;2.50;;;9.40;99.90;;;;;;5072953;28;20193;-66
2022/04/07 02:36:01;;;;;;;2.50;2.20;;;9.50;99.90;;;;;;5073275;28;20188;-67
2022/04/07 02:38:27;;;;;;;2.70;2.23;;;9.50;99.90;;;;;;5068294;28;20245;-64
2022/04/07 02:40:53;;;;;;;2.70;1.97;;;9.40;99.90;;;;;;5073376;28;20285;-66
2022/04/07 02:43:19;;;;;;;2.03;1.83;;;9.40;99.90;;;;;;5075035;28;20184;-66
2022/04/07 02:45:45;;;;;;;2.10;1.90;;;9.40;99.90;;;;;;5070195;28;20191;-68
2022/04/07 02:48:10;;;;;;;1.70;1.60;;;9.40;99.90;;;;;;5066995;28;20286;-68
2022/04/07 02:50:36;;;;;;;4.10;1.83;;;9.30;99.90;;;;;;5077953;28;20550;-66
2022/04/07 02:53:02;;;;;;;2.13;1.73;;;9.20;99.90;;;;;;5072748;28;20185;-67
2022/04/07 02:55:27;;;;;;;2.73;2.20;;;9.20;99.90;;;;;;5073549;28;20193;-68
2022/04/07 02:57:56;;;;;;;3.47;2.53;;;9.00;99.90;;;;;;5078820;28;20720;-68
2022/04/07 03:00:22;;;;;;;3.33;2.63;;;9.00;99.90;;;;;;5073022;28;20181;-68
2022/04/07 03:02:48;;;;;;;3.90;3.10;;;8.90;99.90;;;;;;5074187;28;20815;-65
2022/04/07 03:05:13;;;;;;;4.67;2.83;;;8.90;99.90;;;;;;5073238;28;20842;-66
2022/04/07 03:07:39;;;;;;;4.13;3.40;;;8.80;99.90;;;;;;5079976;28;20185;-65
2022/04/07 03:10:05;;;;;;;3.53;3.07;;;8.70;99.90;;;;;;5073334;28;20220;-66
2022/04/07 03:12:31;;;;;;;2.53;2.13;;;8.70;99.90;;;;;;5071019;28;20197;-67
2022/04/07 03:14:56;;;;;;;2.43;1.60;;;8.70;99.90;;;;;;5076087;28;20212;-66
2022/04/07 03:17:22;;;;;;;1.67;1.57;;;8.70;99.90;;;;;;5079127;28;20217;-65
2022/04/07 03:19:47;;;;;;;1.80;1.43;;;8.70;99.90;;;;;;5076769;28;20220;-63
2022/04/07 03:22:15;;;;;;;1.43;1.30;;;8.60;99.90;;;;;;5071929;28;20182;-64
2022/04/07 03:24:41;;;;;;;1.70;1.30;;;8.70;99.90;;;;;;5066777;28;20204;-63
2022/04/07 03:27:07;;;;;;;1.90;1.03;;;8.70;99.90;;;;;;5073920;28;20193;-66
2022/04/07 03:29:34;;;;;;;1.07;0.80;;;8.70;99.90;;;;;;5077179;28;20582;-64
2022/04/07 03:32:00;;;;;;;0.77;0.77;;;8.60;99.90;;;;;;5077847;28;20192;-66
2022/04/07 03:34:25;;;;;;;0.70;0.60;;;8.60;99.90;;;;;;5070504;28;20173;-65
2022/04/07 03:36:51;;;;;;;0.80;0.80;;;8.50;99.90;;;;;;5076582;28;20567;-66
2022/04/07 03:39:17;;;;;;;0.60;0.60;;;8.60;99.90;;;;;;5076015;28;20692;-66
2022/04/07 03:41:42;;;;;;;0.90;0.70;;;8.50;99.90;;;;;;5070863;28;20259;-65
2022/04/07 03:44:09;;;;;;;0.53;0.50;;;8.50;99.90;;;;;;5071196;28;20233;-65
2022/04/07 03:46:36;;;;;;;0.80;0.80;;;8.50;99.90;;;;;;5076218;28;20227;-65
2022/04/07 03:49:03;;;;;;;0.97;0.60;;;8.50;99.90;;;;;;5070531;28;20209;-64
2022/04/07 03:51:28;;;;;;;0.70;0.60;;;8.50;99.90;;;;;;5076556;28;20257;-64
2022/04/07 03:53:54;;;;;;;1.20;0.90;;;8.40;99.90;;;;;;5077217;28;20636;-66
2022/04/07 03:56:20;;;;;;;0.60;0.60;;;8.40;99.90;;;;;;5076991;28;20281;-66
2022/04/07 03:58:46;;;;;;;1.30;1.00;;;8.30;99.90;;;;;;5076004;28;20224;-65
2022/04/07 04:01:13;;;;;;;1.93;1.30;;;8.20;99.90;;;;;;5075721;28;20965;-64
2022/04/07 04:03:38;;;;;;;1.40;1.20;;;8.20;99.90;;;;;;5075074;28;20189;-65
2022/04/07 04:06:04;;;;;;;2.43;1.23;;;8.30;99.90;;;;;;5074633;28;20181;-66
2022/04/07 04:08:30;;;;;;;2.00;1.60;;;8.20;99.90;;;;;;5070159;28;20217;-67
2022/04/07 04:10:55;;;;;;;1.70;1.20;;;8.30;99.90;;;;;;5072874;28;20992;-65
2022/04/07 04:13:21;;;;;;;1.53;1.43;;;8.30;99.90;;;;;;5073827;28;20385;-65
2022/04/07 04:15:46;;;;;;;1.50;1.30;;;8.30;99.90;;;;;;5071797;28;20271;-65
2022/04/07 04:18:12;;;;;;;2.67;1.60;;;8.30;99.90;;;;;;5072337;28;20217;-65
2022/04/07 04:20:38;;;;;;;3.37;1.70;;;8.20;99.90;;;;;;5075834;28;20185;-65
2022/04/07 04:23:04;;;;;;;2.23;1.70;;;8.30;99.90;;;;;;5077396;28;20687;-65
2022/04/07 04:25:32;;;;;;;2.10;1.50;;;8.30;99.90;;;;;;5077478;28;20185;-66
2022/04/07 04:27:57;;;;;;;2.80;2.03;;;8.40;99.90;;;;;;5077145;28;20189;-64
2022/04/07 04:30:24;;;;;;;2.83;1.87;;;8.50;99.90;;;;;;5075613;28;20246;-63
2022/04/07 04:32:50;;;;;;;3.47;1.77;;;8.50;99.90;;;;;;5077746;28;20270;-65
2022/04/07 04:35:15;;;;;;;1.93;1.63;;;8.60;99.90;;;;;;5076865;28;20670;-63
2022/04/07 04:37:41;;;;;;;2.77;1.97;;;8.70;99.90;;;;;;5078160;28;20192;-65
2022/04/07 04:40:07;;;;;;;2.20;1.80;;;8.70;99.90;;;;;;5076886;28;20211;-65
2022/04/07 04:42:33;;;;;;;2.40;1.50;;;8.70;99.90;;;;;;5076104;28;20189;-64
2022/04/07 04:44:58;;;;;;;2.20;1.93;;;8.70;99.90;;;;;;5072294;28;20190;-65
2022/04/07 04:47:24;;;;;;;2.37;1.60;;;8.80;99.90;;;;;;5075316;28;20188;-66
2022/04/07 04:49:50;;;;;;;2.23;1.80;;;8.80;99.90;;;;;;5072404;28;20249;-65
2022/04/07 04:52:15;;;;;;;2.57;1.73;;;8.80;99.90;;;;;;5074948;28;20657;-64
2022/04/07 04:54:41;;;;;;;2.70;1.60;;;8.80;99.90;;;;;;5073267;28;20211;-64
2022/04/07 04:57:07;;;;;;;2.27;1.77;;;8.80;99.90;;;;;;5074282;28;20265;-66
2022/04/07 04:59:33;;;;;;;1.67;1.50;;;8.90;99.90;;;;;;5075369;28;20692;-65
2022/04/07 05:01:59;;;;;;;1.83;1.63;;;8.90;99.90;;;;;;5074785;28;20181;-65
2022/04/07 05:04:25;;;;;;;1.50;1.40;;;9.00;99.90;;;;;;5075080;28;20207;-64
2022/04/07 05:06:50;;;;;;;2.63;1.70;;;9.10;99.90;;;;;;5078115;28;20679;-65
2022/04/07 05:09:16;;;;;;;1.50;1.40;;;9.20;99.90;;;;;;5092227;28;20202;-65
2022/04/07 05:11:42;;;;;;;1.43;1.20;;;9.30;99.90;;;;;;5074995;28;20532;-66
2022/04/07 05:14:07;;;;;;;1.60;1.20;;;9.30;99.90;;;;;;5068851;28;20193;-65
2022/04/07 05:16:33;;;;;;;1.47;1.20;;;9.20;99.90;;;;;;5076429;28;20184;-65
2022/04/07 05:18:59;;;;;;;1.10;1.00;;;9.40;99.90;;;;;;5073714;28;20206;-63
2022/04/07 05:21:24;;;;;;;2.33;1.07;;;9.40;99.90;;;;;;5073812;28;20675;-65
2022/04/07 05:23:50;;;;;;;1.60;1.07;;;9.50;99.90;;;;;;5074261;28;20188;-66
2022/04/07 05:26:16;;;;;;;1.20;0.93;;;9.50;99.90;;;;;;5077044;28;20185;-64
2022/04/07 05:28:42;;;;;;;2.20;0.97;;;9.50;99.90;;;;;;5073444;28;20233;-64
2022/04/07 05:31:08;;;;;;;1.53;1.00;;;9.60;99.90;;;;;;5074646;28;20309;-65
2022/04/07 05:33:34;;;;;;;0.77;0.67;;;9.60;99.90;;;;;;5073891;28;20185;-66
2022/04/07 05:36:00;;;;;;;2.10;0.80;;;9.60;99.90;;;;;;5074763;28;20551;-65
2022/04/07 05:38:26;;;;;;;0.80;0.73;;;9.70;99.90;;;;;;5077261;28;20217;-67
2022/04/07 05:40:52;;;;;;;1.13;0.70;;;9.70;99.90;;;;;;5080930;28;20659;-66
2022/04/07 05:43:17;;;;;;;0.83;0.60;;;9.70;99.90;;;;;;5080046;28;20177;-66
2022/04/07 05:45:45;;;;;;;1.37;0.60;;;9.70;99.90;;;;;;5073906;28;20186;-63
2022/04/07 05:48:12;;;;;;;0.67;0.60;;;9.80;99.90;;;;;;5077891;28;20197;-65
2022/04/07 05:50:38;;;;;;;0.77;0.60;;;10.00;99.90;;;;;;5083057;28;20184;-65
2022/04/07 05:53:06;;;;;;;1.03;0.70;;;10.00;99.90;;;;;;5069590;28;20653;-66
2022/04/07 05:55:32;;;;;;;1.43;0.67;;;10.00;99.90;;;;;;5077120;28;20220;-66
2022/04/07 05:58:04;;;;;;;0.50;0.50;;;10.00;99.90;;;;;;5073767;28;20228;-64
2022/04/07 06:00:30;;;;;;;0.40;0.40;;;10.20;99.90;;;;;;5071625;28;20268;-66
2022/04/07 06:02:56;;;;;;;1.47;0.70;;;10.30;99.90;;;;;;5080995;28;20735;-65
2022/04/07 06:05:21;;;;;;;0.50;0.50;;;10.40;99.90;;;;;;5074803;28;20212;-67
2022/04/07 06:07:47;;;;;;;0.50;0.50;;;10.40;99.90;;;;;;5070503;28;20204;-65
2022/04/07 06:10:13;;;;;;;0.60;0.60;;;10.30;99.90;;;;;;5078214;28;20192;-66
2022/04/07 06:12:43;;;;;;;1.30;0.60;;;10.10;99.90;;;;;;5071290;28;20547;-64
2022/04/07 06:15:13;;;;;;;1.30;0.53;;;10.10;99.90;;;;;;5077663;28;20289;-66
2022/04/07 06:17:44;;;;;;;1.37;0.43;;;9.90;99.90;;;;;;5077390;28;20189;-66
2022/04/07 06:20:11;;;;;;;0.50;0.50;;;9.90;99.90;;;;;;5068993;28;20232;-66
2022/04/07 06:22:41;;;;;;;0.47;0.47;;;9.80;99.90;;;;;;5077036;28;20263;-64
2022/04/07 06:25:08;;;;;;;0.87;0.63;;;9.70;99.90;;;;;;5069261;28;20185;-66
2022/04/07 06:27:38;;;;;;;1.33;0.50;;;9.70;99.90;;;;;;5067445;28;20189;-67
2022/04/07 06:30:05;;;;;;;1.40;0.60;;;9.90;99.90;;;;;;5070291;28;20201;-65
2022/04/07 06:32:31;;;;;;;1.70;0.50;;;9.90;99.90;;;;;;5069470;28;20194;-64
2022/04/07 06:34:57;;;;;;;1.90;0.47;;;10.00;99.90;;;;;;5066602;28;20704;-66
2022/04/07 06:37:22;;;;;;;0.60;0.50;;;10.20;99.90;;;;;;5064779;28;20227;-66
2022/04/07 06:39:48;;;;;;;1.03;0.60;;;10.30;99.90;;;;;;5064134;28;20252;-65
2022/04/07 06:42:15;;;;;;;0.73;0.50;;;10.40;99.90;;;;;;5070432;28;20239;-65
2022/04/07 06:44:40;;;;;;;1.53;0.50;;;10.40;99.90;;;;;;5066552;28;20192;-65
2022/04/07 06:47:06;;;;;;;1.30;0.80;;;10.30;99.90;;;;;;5069538;28;20190;-65
2022/04/07 06:49:32;;;;;;;0.70;0.50;;;10.20;99.90;;;;;;5066679;28;20751;-66
2022/04/07 06:51:57;;;;;;;1.00;0.70;;;10.20;99.90;;;;;;5065912;28;20193;-66
2022/04/07 06:54:23;;;;;;;1.10;0.60;;;10.30;99.90;;;;;;5074366;28;20521;-65
2022/04/07 06:56:48;;;;;;;0.67;0.67;;;10.30;99.90;;;;;;5070139;28;20194;-66
2022/04/07 06:59:14;;;;;;;1.20;0.70;;;10.40;99.90;;;;;;5071286;28;20209;-65
2022/04/07 07:01:41;;;;;;;0.97;0.70;;;10.60;99.90;;;;;;5074335;28;20174;-66
2022/04/07 07:04:07;;;;;;;1.43;0.60;;;10.80;99.90;;;;;;5074497;28;20170;-65
2022/04/07 07:06:32;;;;;;;0.93;0.50;;;11.00;99.90;;;;;;5074517;28;20181;-66
2022/04/07 07:08:58;;;;;;;0.53;0.40;;;11.10;99.90;;;;;;5074239;28;20204;-65
2022/04/07 07:11:24;;;;;;;1.07;0.60;;;11.30;99.90;;;;;;5073344;28;20200;-67
2022/04/07 07:13:49;;;;;;;0.63;0.40;;;11.50;99.90;;;;;;5074039;28;20208;-66
2022/04/07 07:16:15;;;;;;;0.40;0.40;;;11.80;99.90;;;;;;5074198;28;20641;-63
2022/04/07 07:18:42;;;;;;;0.82;0.50;;;12.00;99.90;;;;;;5074289;28;20688;-66
2022/04/07 07:21:08;;;;;;;0.40;0.30;;;11.90;99.90;;;;;;5069460;28;20189;-67
2022/04/07 07:23:33;;;;;;;0.40;0.40;;;12.00;99.90;;;;;;5074696;28;20181;-67
2022/04/07 07:25:59;;;;;;;0.60;0.40;;;12.00;99.90;;;;;;5087270;28;20188;-66
2022/04/07 07:28:25;;;;;;;1.35;0.50;;;12.10;99.90;;;;;;5077043;28;20209;-66
2022/04/07 07:30:50;;;;;;;0.73;0.50;;;11.90;99.90;;;;;;5073044;28;21296;-67
2022/04/07 07:33:16;;;;;;;0.40;0.40;;;12.00;99.90;;;;;;5064338;28;20185;-67
2022/04/07 07:35:45;;;;;;;0.80;0.50;;;12.10;99.90;;;;;;5069503;28;20234;-65
2022/04/07 07:38:11;;;;;;;0.43;0.40;;;12.10;99.90;;;;;;5068864;28;20237;-66
2022/04/07 07:40:37;;;;;;;0.40;0.40;;;12.30;99.90;;;;;;5068050;28;20182;-66
2022/04/07 07:43:03;;;;;;;0.60;0.60;;;12.60;99.90;;;;;;5071835;28;20530;-67
2022/04/07 07:45:34;;;;;;;0.40;0.40;;;12.80;99.90;;;;;;5064994;28;20181;-65
2022/04/07 07:48:00;;;;;;;0.73;0.40;;;12.60;99.90;;;;;;5072074;28;20218;-67
2022/04/07 07:50:26;;;;;;;0.20;0.20;;;12.40;99.90;;;;;;5074141;28;20182;-66
2022/04/07 07:52:52;;;;;;;0.30;0.30;;;12.40;99.90;;;;;;5063959;28;20189;-66
2022/04/07 07:55:19;;;;;;;0.40;0.40;;;12.50;99.90;;;;;;5073910;28;20172;-67
2022/04/07 07:57:44;;;;;;;0.40;0.40;;;12.40;99.90;;;;;;5071026;28;20243;-67
2022/04/07 08:00:12;;;;;;;1.27;0.40;;;12.40;99.90;;;;;;5068397;28;20204;-66
2022/04/07 08:02:38;;;;;;;0.40;0.22;;;12.20;99.90;;;;;;5067422;28;20173;-67
2022/04/07 08:05:06;;;;;;;1.40;0.40;;;12.10;99.90;;;;;;5070664;28;20722;-65
2022/04/07 08:07:32;;;;;;;0.55;0.55;;;12.00;99.90;;;;;;5071948;28;20298;-66
2022/04/07 08:09:57;;;;;;;0.40;0.40;;;11.90;99.90;;;;;;5076669;28;20257;-64
2022/04/07 08:12:26;;;;;;;0.38;0.38;;;12.00;99.90;;;;;;5072768;28;20670;-65
2022/04/07 08:14:53;;;;;;;11.63;6.28;;;12.00;99.90;;;;;;5069179;28;20178;-65
2022/04/07 08:17:22;;;;;;;7.05;6.35;;;12.10;99.90;;;;;;5070178;28;20209;-66
2022/04/07 08:19:48;;;;;;;0.68;0.45;;;12.10;99.90;;;;;;5070229;28;20235;-68
2022/04/07 08:22:14;;;;;;;0.60;0.60;;;11.90;99.90;;;;;;5072088;28;20538;-68
2022/04/07 08:24:41;;;;;;;1.67;1.13;;;11.90;99.90;;;;;;5068196;28;20185;-65
2022/04/07 08:27:07;;;;;;;1.25;1.00;;;12.10;99.90;;;;;;5075904;28;20192;-66
2022/04/07 08:29:33;;;;;;;1.98;1.30;;;12.20;99.90;;;;;;5075998;28;20205;-65
2022/04/07 08:31:59;;;;;;;1.52;1.08;;;12.20;99.90;;;;;;5078332;28;20539;-67
2022/04/07 08:34:32;;;;;;;0.88;0.80;;;12.20;99.90;;;;;;5077400;28;20193;-65
2022/04/07 08:36:57;;;;;;;3.17;1.50;;;12.00;99.90;;;;;;5077522;28;20173;-67
2022/04/07 08:39:23;;;;;;;2.72;1.58;;;12.10;99.90;;;;;;5076118;28;20219;-66
2022/04/07 08:41:50;;;;;;;2.15;1.33;;;12.20;99.90;;;;;;5079861;28;20211;-65
2022/04/07 08:44:20;;;;;;;2.50;1.35;;;12.40;99.90;;;;;;5078730;28;20195;-65
2022/04/07 08:46:56;;;;;;;3.30;1.40;;;12.60;99.90;;;;;;5079812;28;20181;-64
2022/04/07 08:49:30;;;;;;;1.35;1.00;;;12.60;99.90;;;;;;5077827;28;20273;-66
2022/04/07 08:51:55;;;;;;;1.10;0.88;;;12.70;99.90;;;;;;5076921;28;20238;-66
2022/04/07 08:54:22;;;;;;;0.60;0.60;;;12.60;99.90;;;;;;5075885;28;20662;-66
2022/04/07 08:56:49;;;;;;;0.98;0.60;;;12.60;99.90;;;;;;5081287;28;20640;-64
2022/04/07 08:59:15;;;;;;;0.60;0.52;;;12.80;99.90;;;;;;5080706;28;20209;-64
2022/04/07 09:01:44;;;;;;;0.40;0.40;;;12.90;99.90;;;;;;5077481;28;20207;-67
2022/04/07 09:04:13;;;;;;;0.50;0.30;;;12.80;99.90;;;;;;5076501;28;20246;-65
2022/04/07 09:06:45;;;;;;;0.60;0.52;;;12.70;99.90;;;;;;5082050;28;20173;-64
2022/04/07 09:09:14;;;;;;;0.50;0.40;;;12.80;99.90;;;;;;5079335;28;20223;-66
2022/04/07 09:11:40;;;;;;;2.33;0.63;;;12.80;99.90;;;;;;5080348;28;20528;-66
2022/04/07 09:14:09;;;;;;;1.25;0.32;;;12.90;99.90;;;;;;5086709;28;20185;-64
2022/04/07 09:16:38;;;;;;;0.50;0.40;;;13.00;99.90;;;;;;5081823;28;20310;-66
2022/04/07 09:19:04;;;;;;;0.30;0.30;;;13.00;99.90;;;;;;5081438;28;20309;-64
2022/04/07 09:21:34;;;;;;;0.40;0.40;;;13.10;99.90;;;;;;5081608;28;20178;-66
2022/04/07 09:24:07;;;;;;;0.40;0.40;;;13.20;99.90;;;;;;5076904;28;20162;-64
2022/04/07 09:26:41;;;;;;;0.40;0.30;;;13.10;99.90;;;;;;5076595;28;20187;-65
2022/04/07 09:29:11;;;;;;;0.28;0.28;;;13.10;99.90;;;;;;5084384;28;20227;-64
2022/04/07 09:31:39;;;;;;;0.20;0.20;;;13.20;99.90;;;;;;5083759;28;20189;-67
2022/04/07 09:34:05;;;;;;;0.30;0.30;;;13.10;99.90;;;;;;5083511;28;20176;-66
2022/04/07 09:36:35;;;;;;;0.32;0.30;;;13.20;99.90;;;;;;5084618;28;20192;-65
2022/04/07 09:39:04;;;;;;;0.68;0.30;;;13.30;99.90;;;;;;5079693;28;20273;-65
2022/04/07 09:41:30;;;;;;;0.40;0.40;;;13.40;99.90;;;;;;5082369;28;20173;-67
2022/04/07 09:43:58;;;;;;;0.82;0.30;;;13.30;99.90;;;;;;5080624;28;20173;-65
2022/04/07 09:46:26;;;;;;;0.28;0.28;;;13.30;99.90;;;;;;5067292;28;20261;-64
2022/04/07 09:49:07;;;;;;;0.95;0.32;;;12.90;99.90;;;;;;5073837;28;20806;-66
2022/04/07 09:51:46;;;;;;;0.15;0.15;;;12.60;99.90;;;;;;5076373;28;20542;-66
2022/04/07 09:54:15;;;;;;;0.45;0.40;;;12.50;99.90;;;;;;5074362;28;20178;-65
2022/04/07 09:56:42;;;;;;;0.40;0.35;;;12.30;99.90;;;;;;5078087;28;20770;-65
2022/04/07 09:59:09;;;;;;;0.22;0.22;;;12.10;99.90;;;;;;5078349;28;20231;-65
2022/04/07 10:01:38;;;;;;;0.68;0.25;;;12.20;99.90;;;;;;5079739;28;20184;-66
2022/04/07 10:04:05;;;;;;;0.40;0.40;;;12.30;99.90;;;;;;5078218;28;20467;-66
2022/04/07 10:06:33;;;;;;;0.30;0.30;;;12.20;99.90;;;;;;5076361;28;20181;-66
2022/04/07 10:09:04;;;;;;;0.25;0.20;;;12.20;99.90;;;;;;5075192;28;20641;-64
2022/04/07 10:11:31;;;;;;;0.43;0.25;;;12.10;99.90;;;;;;5073076;28;20189;-65
2022/04/07 10:13:58;;;;;;;0.20;0.20;;;12.10;99.90;;;;;;5078322;28;20272;-66
2022/04/07 10:16:25;;;;;;;0.38;0.30;;;12.10;99.90;;;;;;5080143;28;20185;-68
2022/04/07 10:19:12;;;;;;;0.52;0.30;;;12.00;99.90;;;;;;5072257;28;20677;-66
2022/04/07 10:21:41;;;;;;;3.03;0.40;;;11.90;99.90;;;;;;5067468;28;20281;-67
2022/04/07 10:24:41;;;;;;;1.00;0.50;;;12.00;99.90;;;;;;5067223;28;20736;-66
2022/04/07 10:27:09;;;;;;;0.28;0.28;;;12.30;99.90;;;;;;5072245;28;20251;-67
2022/04/07 10:29:37;;;;;;;0.50;0.50;;;12.50;99.90;;;;;;5070119;28;20550;-66
2022/04/07 10:32:17;;;;;;;0.47;0.30;;;12.90;99.90;;;;;;5073517;28;20192;-66
2022/04/07 10:34:58;;;;;;;2.08;0.75;;;13.30;99.90;;;;;;5077437;28;20188;-67
2022/04/07 10:37:42;;;;;;;0.57;0.40;;;13.50;99.90;;;;;;5073650;28;20189;-65
2022/04/07 10:40:38;;;;;;;2.20;0.73;;;13.20;99.90;;;;;;5077227;28;20212;-66
2022/04/07 10:43:04;;;;;;;1.23;0.60;;;13.20;99.90;;;;;;5079081;28;20180;-66
2022/04/07 10:45:33;;;;;;;2.08;1.27;;;13.10;99.90;;;;;;5075661;28;20177;-66
2022/04/07 10:48:59;;;;;;;1.23;0.65;;;12.90;99.90;;;;;;5073945;28;20657;-67
2022/04/07 10:51:49;;;;;;;0.75;0.60;;;12.60;99.90;;;;;;5047627;28;20637;-66
2022/04/07 10:54:15;;;;;;;1.05;0.45;;;12.30;99.90;;;;;;5078447;28;20649;-66
2022/04/07 10:56:51;;;;;;;0.65;0.50;;;12.10;99.90;;;;;;5067910;28;20186;-65
2022/04/07 10:59:17;;;;;;;0.70;0.55;;;12.30;99.90;;;;;;5069665;28;20217;-63
2022/04/07 11:01:42;;;;;;;0.70;0.50;;;12.50;99.90;;;;;;5069890;28;20181;-66
2022/04/07 11:04:20;;;;;;;1.30;0.50;;;12.70;99.90;;;;;;5075250;28;20177;-64
2022/04/07 11:07:04;;;;;;;0.75;0.30;;;12.60;99.90;;;;;;5067121;28;20189;-63
2022/04/07 11:09:52;;;;;;;0.63;0.50;;;12.90;99.90;;;;;;5071325;28;20672;-66
2022/04/07 11:12:18;;;;;;;1.00;0.22;;;13.20;99.90;;;;;;5070055;28;20267;-64
2022/04/07 11:14:45;;;;;;;0.30;0.30;;;13.60;99.90;;;;;;5065094;28;20189;-66
2022/04/07 11:17:20;;;;;;;0.35;0.30;;;13.70;99.90;;;;;;5075238;28;20645;-64
2022/04/07 11:20:15;;;;;;;0.57;0.40;;;13.60;99.90;;;;;;5068753;28;20274;-65
2022/04/07 11:22:58;;;;;;;0.88;0.30;;;13.40;99.90;;;;;;5059173;28;20194;-66
2022/04/07 11:25:30;;;;;;;0.68;0.57;;;13.30;99.90;;;;;;5072734;28;20250;-66
2022/04/07 11:28:17;;;;;;;1.08;0.82;;;13.40;99.90;;;;;;5075591;28;20200;-63
2022/04/07 11:30:47;;;;;;;0.30;0.30;;;13.30;99.90;;;;;;5072506;28;20179;-67
2022/04/07 11:33:20;;;;;;;0.40;0.32;;;13.30;99.90;;;;;;5076372;28;20278;-63
2022/04/07 11:36:02;;;;;;;0.45;0.45;;;13.20;99.90;;;;;;5069318;28;20185;-65
2022/04/07 11:38:43;;;;;;;0.28;0.20;;;13.10;99.90;;;;;;5071845;28;20223;-64
2022/04/07 11:41:14;;;;;;;1.00;0.30;;;12.90;99.90;;;;;;5067018;28;20173;-63
2022/04/07 11:43:50;;;;;;;1.05;0.22;;;12.40;99.90;;;;;;5071304;28;20290;-64
2022/04/07 11:46:28;;;;;;;2.10;0.40;;;10.60;99.90;;;;;;5071988;28;20177;-63
2022/04/07 11:48:57;;;;;;;1.23;0.30;;;9.20;99.90;;;;;;5072254;28;20201;-65
2022/04/07 11:51:24;;;;;;;3.70;0.70;;;8.00;99.90;;;;;;5076996;28;20216;-67
2022/04/07 11:53:52;;;;;;;2.03;0.50;;;7.30;99.90;;;;;;5071820;28;20260;-64
2022/04/07 11:56:20;;;;;;;0.83;0.43;;;7.00;99.90;;;;;;5067245;28;20293;-65
2022/04/07 11:59:15;;;;;;;2.10;0.50;;;6.90;99.90;;;;;;5075516;28;20565;-65
2022/04/07 12:01:44;;;;;;;0.43;0.20;;;6.80;99.90;;;;;;5052480;28;20213;-65
2022/04/07 12:04:11;;;;;;;0.97;0.30;;;6.90;99.90;;;;;;5074727;28;20720;-66
2022/04/07 12:06:40;;;;;;;0.40;0.40;;;6.80;99.90;;;;;;5071472;28;20173;-64
2022/04/07 12:09:07;;;;;;;0.50;0.30;;;6.90;99.90;;;;;;5071306;28;20205;-64
2022/04/07 12:11:39;;;;;;;0.70;0.30;;;7.00;99.90;;;;;;5074921;28;20181;-64
2022/04/07 12:14:08;;;;;;;1.37;0.33;;;7.00;99.90;;;;;;5077853;28;20188;-66
2022/04/07 12:16:34;;;;;;;1.80;0.50;;;6.90;99.90;;;;;;5065919;28;20345;-65
2022/04/07 12:19:07;;;;;;;1.43;0.40;;;7.00;99.90;;;;;;5074070;28;20611;-65
2022/04/07 12:21:56;;;;;;;1.53;0.20;;;7.20;99.90;;;;;;5069879;28;20960;-66
2022/04/07 12:24:28;;;;;;;0.83;0.40;;;7.20;99.90;;;;;;5072729;28;20185;-63
2022/04/07 12:26:56;;;;;;;3.20;0.47;;;7.20;99.90;;;;;;5074363;28;20197;-65
2022/04/07 12:29:25;;;;;;;2.53;0.33;;;7.20;99.90;;;;;;5067813;28;20205;-64
2022/04/07 12:32:09;;;;;;;1.43;0.60;;;7.20;99.90;;;;;;5075065;28;20265;-66
2022/04/07 12:34:56;;;;;;;2.07;0.63;;;7.20;99.90;;;;;;5070473;28;20671;-65
2022/04/07 12:37:39;;;;;;;1.20;0.80;;;7.10;99.90;;;;;;5071731;28;20604;-65
2022/04/07 12:40:06;;;;;;;1.67;0.77;;;7.20;99.90;;;;;;5068101;28;20208;-67
2022/04/07 12:42:32;;;;;;;1.37;1.20;;;7.50;99.90;;;;;;5071854;28;20174;-64
2022/04/07 12:45:08;;;;;;;1.00;0.90;;;7.60;99.90;;;;;;5069702;28;20552;-65
2022/04/07 12:47:34;;;;;;;0.87;0.60;;;8.10;99.90;;;;;;5067953;28;20553;-65
2022/04/07 12:50:02;;;;;;;1.13;0.50;;;8.50;99.90;;;;;;5072128;28;20201;-66
2022/04/07 12:52:39;;;;;;;1.00;0.50;;;8.90;99.90;;;;;;5069298;28;20676;-66
2022/04/07 12:55:12;;;;;;;0.37;0.30;;;9.10;99.90;;;;;;5069502;28;20185;-65
2022/04/07 12:57:40;;;;;;;0.33;0.30;;;9.30;99.90;;;;;;5067385;28;20758;-66
2022/04/07 13:00:10;;;;;;;0.70;0.50;;;9.40;99.90;;;;;;5074169;28;20720;-66